Time;durP1;ratioP1;P1;durP2;ratioP2;P2;SDS_P1;SDS_P2;PMS_P1;PMS_P2;Temp;Humidity;BMP_temperature;BMP_pressure;BME280_temperature;BME280_humidity;BME280_pressure;Samples;Min_cycle;Max_cycle;Signal;HPM_P1;HPM_P2
2022/12/01 00:00:36;;;;;;;;;;;;;;;17.04;45.42;101512.03;5060060;28;1913;-48
2022/12/01 00:03:01;;;;;;;;;;;;;;;16.77;45.92;101531.19;5060139;28;1230;-49
2022/12/01 00:05:27;;;;;;;;;;;;;;;16.48;45.76;101542.38;5053052;28;1183;-46
2022/12/01 00:07:52;;;;;;;;;;;;;;;17.20;45.21;101536.91;5058281;28;965;-49
2022/12/01 00:10:27;;;;;;;;;;;;;;;16.67;45.79;101536.56;5059547;28;1205;-48
2022/12/01 00:12:56;;;;;;;;;;;;;;;16.93;45.75;101532.25;5059691;28;1143;-46
2022/12/01 00:15:22;;;;;;;;;;;;;;;17.54;44.26;101526.50;5059161;28;1159;-49
2022/12/01 00:17:47;;;;;;;;;;;;;;;16.66;45.86;101521.16;5059665;28;1108;-48
2022/12/01 00:20:13;;;;;;;;;;;;;;;18.50;42.24;101512.03;5060120;28;1914;-47
2022/12/01 00:22:42;;;;;;;;;;;;;;;17.30;44.74;101515.03;5059271;28;1128;-49
2022/12/01 00:25:07;;;;;;;;;;;;;;;16.84;45.28;101509.03;5059760;28;1132;-49
2022/12/01 00:27:33;;;;;;;;;;;;;;;16.52;45.63;101520.72;5059334;28;1160;-49
2022/12/01 00:29:58;;;;;;;;;;;;;;;17.34;44.93;101509.84;5059597;28;1156;-48
2022/12/01 00:32:24;;;;;;;;;;;;;;;16.98;45.89;101512.22;5059603;28;1254;-50
2022/12/01 00:34:49;;;;;;;;;;;;;;;18.84;41.70;101515.19;5059431;28;1195;-50
2022/12/01 00:37:14;;;;;;;;;;;;;;;17.53;44.11;101510.28;5058825;28;1116;-47
2022/12/01 00:39:40;;;;;;;;;;;;;;;16.94;45.35;101509.16;5059663;28;1902;-49
2022/12/01 00:42:05;;;;;;;;;;;;;;;16.56;45.43;101522.72;5059574;28;1215;-45
2022/12/01 00:44:31;;;;;;;;;;;;;;;17.41;44.50;101510.47;5058996;28;1171;-48
2022/12/01 00:46:56;;;;;;;;;;;;;;;17.00;45.20;101501.78;5058860;28;1139;-48
2022/12/01 00:49:22;;;;;;;;;;;;;;;17.48;44.49;101507.50;5059477;28;1183;-48
2022/12/01 00:51:47;;;;;;;;;;;;;;;18.30;42.56;101488.81;5059607;28;1195;-47
2022/12/01 00:54:12;;;;;;;;;;;;;;;17.15;45.13;101492.88;5048380;28;1201;-48
2022/12/01 00:56:38;;;;;;;;;;;;;;;16.65;45.60;101479.16;5058554;28;1111;-47
2022/12/01 00:59:03;;;;;;;;;;;;;;;17.04;45.38;101490.06;5058482;28;1979;-47
2022/12/01 01:01:29;;;;;;;;;;;;;;;16.92;45.20;101478.38;5058853;28;1171;-46
2022/12/01 01:03:54;;;;;;;;;;;;;;;18.23;42.69;101474.44;5058807;28;1246;-49
2022/12/01 01:06:20;;;;;;;;;;;;;;;19.02;40.96;101478.06;5059027;28;1159;-47
2022/12/01 01:08:45;;;;;;;;;;;;;;;17.49;44.20;101471.50;5058292;28;1179;-48
2022/12/01 01:11:11;;;;;;;;;;;;;;;16.98;45.06;101469.09;5058713;28;1207;-46
2022/12/01 01:13:36;;;;;;;;;;;;;;;16.68;45.13;101459.41;5059362;28;1151;-48
2022/12/01 01:16:03;;;;;;;;;;;;;;;17.41;44.43;101461.78;5058590;28;1275;-48
2022/12/01 01:18:28;;;;;;;;;;;;;;;16.82;45.09;101472.75;5057871;28;1918;-50
2022/12/01 01:20:55;;;;;;;;;;;;;;;18.10;43.36;101467.50;5058670;28;1167;-46
2022/12/01 01:23:20;;;;;;;;;;;;;;;17.22;44.82;101469.63;5058122;28;1274;-48
2022/12/01 01:25:45;;;;;;;;;;;;;;;16.71;45.44;101463.56;5056616;28;1131;-48
2022/12/01 01:28:11;;;;;;;;;;;;;;;17.31;44.65;101466.41;5045981;28;1125;-50
2022/12/01 01:30:38;;;;;;;;;;;;;;;16.92;45.14;101461.91;5057811;28;1233;-49
2022/12/01 01:33:03;;;;;;;;;;;;;;;18.47;41.97;101456.38;5044631;28;1081;-49
2022/12/01 01:35:29;;;;;;;;;;;;;;;18.72;41.27;101446.56;5058018;28;1367;-50
2022/12/01 01:37:54;;;;;;;;;;;;;;;17.48;43.96;101453.31;5058076;28;1108;-48
2022/12/01 01:40:20;;;;;;;;;;;;;;;16.94;45.10;101456.97;5058021;28;1965;-50
2022/12/01 01:42:45;;;;;;;;;;;;;;;17.90;43.26;101459.94;5057973;28;1195;-48
2022/12/01 01:45:21;;;;;;;;;;;;;;;16.96;45.19;101468.53;5058573;28;1226;-48
2022/12/01 01:47:46;;;;;;;;;;;;;;;17.83;43.49;101467.59;5058161;28;1433;-45
2022/12/01 01:50:12;;;;;;;;;;;;;;;17.79;43.39;101465.38;5057622;28;1202;-48
2022/12/01 01:52:38;;;;;;;;;;;;;;;16.97;44.99;101453.72;5058155;28;1152;-46
2022/12/01 01:55:04;;;;;;;;;;;;;;;16.71;44.93;101452.59;5039901;28;1196;-48
2022/12/01 01:57:30;;;;;;;;;;;;;;;16.58;45.48;101456.56;5058154;28;1143;-49
2022/12/01 02:00:15;;;;;;;;;;;;;;;17.10;44.55;101450.53;5057445;28;1913;-46
2022/12/01 02:02:42;;;;;;;;;;;;;;;18.04;43.24;101458.41;5057958;28;1072;-46
2022/12/01 02:05:10;;;;;;;;;;;;;;;18.76;41.03;101455.09;5040008;28;1211;-44
2022/12/01 02:07:37;;;;;;;;;;;;;;;17.37;44.14;101457.91;5039766;28;1211;-46
2022/12/01 02:10:03;;;;;;;;;;;;;;;16.97;44.62;101450.13;5038645;28;1215;-46
2022/12/01 02:12:43;;;;;;;;;;;;;;;17.88;43.56;101443.69;5057364;28;1235;-50
2022/12/01 02:15:14;;;;;;;;;;;;;;;17.00;44.98;101447.69;5057166;28;1159;-46
2022/12/01 02:17:43;;;;;;;;;;;;;;;17.15;44.81;101440.69;5057539;28;1195;-47
2022/12/01 02:20:18;;;;;;;;;;;;;;;17.38;44.20;101440.31;5037294;28;1910;-49
2022/12/01 02:23:12;;;;;;;;;;;;;;;16.68;45.31;101450.38;5053253;28;1103;-49
2022/12/01 02:25:41;;;;;;;;;;;;;;;16.57;44.79;101442.00;5014031;28;1285;-50
2022/12/01 02:28:06;;;;;;;;;;;;;;;17.43;44.20;101436.78;5049350;28;994;-51
2022/12/01 02:30:39;;;;;;;;;;;;;;;16.56;45.67;101434.00;5056872;28;1214;-48
2022/12/01 02:33:14;;;;;;;;;;;;;;;16.56;45.61;101434.88;5057197;28;933;-51
2022/12/01 02:35:45;;;;;;;;;;;;;;;16.92;45.05;101423.44;5034007;28;1136;-51
2022/12/01 02:38:23;;;;;;;;;;;;;;;16.41;45.56;101421.78;5043516;28;1100;-47
2022/12/01 02:41:24;;;;;;;;;;;;;;;17.03;45.11;101410.63;5056589;28;1168;-49
2022/12/01 02:43:49;;;;;;;;;;;;;;;16.89;45.06;101407.47;4986471;28;1391;-49
2022/12/01 02:46:21;;;;;;;;;;;;;;;17.54;44.09;101404.69;5030826;28;1196;-49
2022/12/01 02:48:47;;;;;;;;;;;;;;;18.05;42.49;101404.22;5031558;28;1061;-50
2022/12/01 02:51:13;;;;;;;;;;;;;;;16.91;44.93;101408.88;5038907;28;1211;-48
2022/12/01 02:53:39;;;;;;;;;;;;;;;16.56;45.45;101417.53;5039319;28;1171;-48
2022/12/01 02:56:05;;;;;;;;;;;;;;;17.50;43.78;101412.66;5036403;28;1357;-50
2022/12/01 02:58:30;;;;;;;;;;;;;;;16.62;45.12;101411.03;5049334;28;1906;-51
2022/12/01 03:01:01;;;;;;;;;;;;;;;18.52;41.69;101407.94;5056293;28;1136;-48
2022/12/01 03:03:35;;;;;;;;;;;;;;;17.41;44.09;101409.56;5038802;28;1125;-48
2022/12/01 03:06:11;;;;;;;;;;;;;;;16.87;44.75;101406.88;5051697;28;1009;-48
2022/12/01 03:08:47;;;;;;;;;;;;;;;18.07;42.75;101402.81;5038848;28;1168;-48
2022/12/01 03:11:25;;;;;;;;;;;;;;;16.95;45.01;101398.19;5038438;28;1243;-47
2022/12/01 03:13:54;;;;;;;;;;;;;;;16.58;44.95;101402.47;5038650;28;1101;-48
2022/12/01 03:16:23;;;;;;;;;;;;;;;17.34;44.27;101405.38;5044008;28;1164;-49
2022/12/01 03:18:51;;;;;;;;;;;;;;;16.60;45.21;101402.22;5047265;28;1901;-48
2022/12/01 03:21:43;;;;;;;;;;;;;;;16.71;45.33;101403.97;5055768;28;934;-50
2022/12/01 03:24:12;;;;;;;;;;;;;;;16.93;44.96;101390.22;5054311;28;1218;-49
2022/12/01 03:26:38;;;;;;;;;;;;;;;17.75;43.49;101394.66;5038385;28;1175;-50
2022/12/01 03:29:08;;;;;;;;;;;;;;;18.45;41.54;101389.75;5038466;28;1263;-48
2022/12/01 03:31:35;;;;;;;;;;;;;;;17.08;44.28;101392.28;5056229;28;1132;-50
2022/12/01 03:34:05;;;;;;;;;;;;;;;16.70;44.80;101402.31;5056205;28;1147;-48
2022/12/01 03:36:35;;;;;;;;;;;;;;;17.48;43.81;101400.25;5024794;28;1105;-50
2022/12/01 03:39:03;;;;;;;;;;;;;;;16.64;45.13;101397.84;5038541;28;1972;-49
2022/12/01 03:41:30;;;;;;;;;;;;;;;18.03;42.56;101406.38;5038408;28;1180;-50
2022/12/01 03:43:57;;;;;;;;;;;;;;;17.20;44.11;101408.56;5055785;28;1155;-48
2022/12/01 03:46:24;;;;;;;;;;;;;;;16.73;45.08;101423.78;5024608;28;1190;-51
2022/12/01 03:48:51;;;;;;;;;;;;;;;17.55;43.75;101423.69;5056047;28;1139;-48
2022/12/01 03:51:20;;;;;;;;;;;;;;;16.74;44.84;101439.16;5055641;28;1218;-50
2022/12/01 03:53:45;;;;;;;;;;;;;;;18.25;42.19;101448.31;5055679;28;1168;-50
2022/12/01 03:56:10;;;;;;;;;;;;;;;17.90;42.70;101454.44;5055618;28;1175;-50
2022/12/01 03:58:40;;;;;;;;;;;;;;;16.97;44.70;101450.97;5038397;28;1910;-47
2022/12/01 04:01:06;;;;;;;;;;;;;;;16.64;44.83;101458.28;5034193;28;1171;-46
2022/12/01 04:03:32;;;;;;;;;;;;;;;17.34;44.13;101455.69;5040680;28;1616;-62
2022/12/01 04:05:57;;;;;;;;;;;;;;;16.72;44.92;101465.25;5038399;28;1042;-62
2022/12/01 04:08:23;;;;;;;;;;;;;;;17.92;43.12;101461.38;5034003;28;1191;-62
2022/12/01 04:10:48;;;;;;;;;;;;;;;17.20;44.18;101468.22;5046819;28;1155;-62
2022/12/01 04:13:23;;;;;;;;;;;;;;;16.77;44.70;101465.28;5052358;28;1014;-59
2022/12/01 04:15:52;;;;;;;;;;;;;;;16.43;44.91;101469.00;5055828;28;1128;-57
2022/12/01 04:18:17;;;;;;;;;;;;;;;17.36;44.18;101464.50;5056073;28;1147;-62
2022/12/01 04:20:49;;;;;;;;;;;;;;;16.59;45.27;101475.53;5055156;28;1914;-62
2022/12/01 04:23:58;;;;;;;;;;;;;;;17.17;44.59;101468.75;5051682;28;1191;-58
2022/12/01 04:26:00;;;;;;;;;;;;;;;16.85;45.27;101464.00;5051963;28;1362;-57
2022/12/01 04:28:26;;;;;;;;;;;;;;;16.40;45.48;101469.53;5055774;28;1112;-53
2022/12/01 04:30:51;;;;;;;;;;;;;;;17.60;43.71;101453.16;5050136;28;1422;-55
2022/12/01 04:33:17;;;;;;;;;;;;;;;16.58;45.65;101459.31;5050692;28;897;-60
2022/12/01 04:35:42;;;;;;;;;;;;;;;16.32;45.64;101469.97;5058965;28;1128;-58
2022/12/01 04:38:07;;;;;;;;;;;;;;;17.23;44.60;101467.69;5059585;28;1144;-57
2022/12/01 04:40:33;;;;;;;;;;;;;;;17.00;44.72;101466.09;5059535;28;1997;-59
2022/12/01 04:42:58;;;;;;;;;;;;;;;16.35;45.56;101458.47;5059337;28;1215;-54
2022/12/01 04:45:24;;;;;;;;;;;;;;;16.76;45.66;101447.97;5056954;28;1338;-59
2022/12/01 04:47:51;;;;;;;;;;;;;;;16.77;45.39;101435.91;5045157;28;1113;-60
2022/12/01 04:50:16;;;;;;;;;;;;;;;16.31;45.60;101429.88;5054781;28;858;-55
2022/12/01 04:52:42;;;;;;;;;;;;;;;16.91;45.22;101430.00;5056558;28;1127;-52
2022/12/01 04:55:07;;;;;;;;;;;;;;;16.89;45.20;101410.22;5054983;28;1093;-53
2022/12/01 04:57:33;;;;;;;;;;;;;;;16.34;46.06;101399.19;5058268;28;1202;-53
2022/12/01 04:59:58;;;;;;;;;;;;;;;17.58;43.70;101405.81;5057726;28;2484;-49
2022/12/01 05:02:23;;;;;;;;;;;;;;;16.49;45.85;101406.75;5058565;28;2190;-48
2022/12/01 05:04:49;;;;;;;;;;;;;;;17.61;43.87;101410.78;5058299;28;1952;-49
2022/12/01 05:07:14;;;;;;;;;;;;;;;17.54;43.66;101402.75;5058439;28;1874;-49
2022/12/01 05:09:40;;;;;;;;;;;;;;;16.68;45.42;101410.00;5058805;28;2398;-47
2022/12/01 05:12:05;;;;;;;;;;;;;;;17.35;44.32;101407.03;5058327;28;1860;-47
2022/12/01 05:14:31;;;;;;;;;;;;;;;16.81;45.15;101419.72;5058051;28;2077;-49
2022/12/01 05:16:57;;;;;;;;;;;;;;;17.26;44.54;101431.44;5058485;28;1076;-48
2022/12/01 05:22:06;;;;;;;;;;;;;;;16.85;44.91;101414.56;5057924;28;846;-49
2022/12/01 05:24:31;;;;;;;;;;;;;;;16.84;45.20;101413.69;5058324;28;1207;-48
2022/12/01 05:26:57;;;;;;;;;;;;;;;17.52;43.30;101396.72;5058368;28;1170;-48
2022/12/01 05:29:22;;;;;;;;;;;;;;;16.82;44.94;101399.41;5057808;28;1072;-49
2022/12/01 05:31:48;;;;;;;;;;;;;;;16.89;45.22;101412.97;5058312;28;1202;-48
2022/12/01 05:34:13;;;;;;;;;;;;;;;17.35;43.70;101407.88;5057364;28;1405;-49
2022/12/01 05:36:38;;;;;;;;;;;;;;;16.87;45.39;101426.09;5058253;28;1147;-48
2022/12/01 05:39:04;;;;;;;;;;;;;;;18.78;40.76;101417.91;5044558;28;1906;-48
2022/12/01 05:41:29;;;;;;;;;;;;;;;17.33;43.95;101415.53;5057488;28;1200;-48
2022/12/01 05:43:55;;;;;;;;;;;;;;;16.85;44.65;101425.53;5057955;28;2657;-48
2022/12/01 05:46:20;;;;;;;;;;;;;;;17.60;43.22;101426.47;5057537;28;1040;-46
2022/12/01 05:48:46;;;;;;;;;;;;;;;16.76;44.77;101428.75;5058027;28;1108;-48
2022/12/01 05:51:12;;;;;;;;;;;;;;;18.35;42.00;101449.47;5057841;28;1151;-49
2022/12/01 05:53:37;;;;;;;;;;;;;;;17.47;43.31;101446.16;5057606;28;1155;-49
2022/12/01 05:56:03;;;;;;;;;;;;;;;16.86;44.61;101450.00;5057837;28;1140;-47
2022/12/01 05:58:29;;;;;;;;;;;;;;;16.56;44.81;101464.22;5051798;28;1061;-47
2022/12/01 06:00:54;;;;;;;;;;;;;;;17.95;42.41;101471.03;5048785;28;1906;-51
2022/12/01 06:03:20;;;;;;;;;;;;;;;16.88;45.04;101471.72;5057642;28;1076;-52
2022/12/01 06:05:45;;;;;;;;;;;;;;;18.81;40.92;101472.47;5057982;28;1140;-52
2022/12/01 06:08:10;;;;;;;;;;;;;;;17.88;42.74;101453.88;5052908;28;1084;-52
2022/12/01 06:10:36;;;;;;;;;;;;;;;17.16;44.18;101464.31;5053775;28;1043;-52
2022/12/01 06:13:01;;;;;;;;;;;;;;;16.82;44.42;101465.34;5046506;28;1116;-53
2022/12/01 06:15:27;;;;;;;;;;;;;;;17.64;43.51;101456.19;5056108;28;2263;-53
2022/12/01 06:17:53;;;;;;;;;;;;;;;16.99;44.41;101451.53;5044070;28;1152;-51
2022/12/01 06:20:18;;;;;;;;;;;;;;;17.67;43.47;101437.25;5056970;28;1982;-54
2022/12/01 06:22:44;;;;;;;;;;;;;;;18.01;42.03;101442.44;5057024;28;1186;-54
2022/12/01 06:25:09;;;;;;;;;;;;;;;17.08;44.31;101438.97;5057184;28;1147;-53
2022/12/01 06:27:35;;;;;;;;;;;;;;;16.83;44.88;101435.94;5057023;28;1092;-53
2022/12/01 06:30:00;;;;;;;;;;;;;;;18.41;41.64;101431.84;5056506;28;1068;-53
2022/12/01 06:32:26;;;;;;;;;;;;;;;17.49;43.31;101430.25;5056500;28;1263;-48
2022/12/01 06:34:51;;;;;;;;;;;;;;;16.99;44.65;101431.47;5047637;28;1155;-53
2022/12/01 06:37:16;;;;;;;;;;;;;;;16.75;45.06;101437.25;5051324;28;1192;-53
2022/12/01 06:39:42;;;;;;;;;;;;;;;16.53;45.51;101426.28;5036704;28;1997;-55
2022/12/01 06:42:08;;;;;;;;;;;;;;;16.31;46.16;101438.09;5049648;28;1120;-54
2022/12/01 06:44:34;;;;;;;;;;;;;;;16.15;46.55;101441.75;5057163;28;2377;-54
2022/12/01 06:47:00;;;;;;;;;;;;;;;16.02;46.68;101443.78;5056629;28;892;-56
2022/12/01 06:49:25;;;;;;;;;;;;;;;15.88;47.03;101437.03;5056537;28;1171;-56
2022/12/01 06:51:51;;;;;;;;;;;;;;;15.73;47.22;101440.31;5056850;28;1144;-52
2022/12/01 06:54:16;;;;;;;;;;;;;;;17.12;44.14;101446.69;5056620;28;1195;-53
2022/12/01 06:56:42;;;;;;;;;;;;;;;16.57;45.06;101450.22;5038114;28;1227;-53
2022/12/01 06:59:08;;;;;;;;;;;;;;;16.11;46.53;101455.16;5038046;28;1890;-53
2022/12/01 07:01:33;;;;;;;;;;;;;;;15.82;46.99;101459.94;5056527;28;1089;-54
2022/12/01 07:03:59;;;;;;;;;;;;;;;16.18;46.23;101455.78;5045733;28;1139;-54
2022/12/01 07:06:25;;;;;;;;;;;;;;;17.49;43.10;101459.63;5052954;28;1160;-54
2022/12/01 07:08:51;;;;;;;;;;;;;;;16.43;45.59;101469.00;5056430;28;1183;-54
2022/12/01 07:11:16;;;;;;;;;;;;;;;16.06;46.47;101458.66;5056097;28;1012;-55
2022/12/01 07:13:44;;;;;;;;;;;;;;;17.09;44.24;101462.59;5055888;28;1360;-54
2022/12/01 07:16:09;;;;;;;;;;;;;;;16.83;44.50;101457.91;5056525;28;2639;-54
2022/12/01 07:18:35;;;;;;;;;;;;;;;16.25;45.86;101463.84;5054442;28;1910;-55
2022/12/01 07:21:05;;;;;;;;;;;;;;;15.97;46.93;101460.16;5055218;28;1104;-55
2022/12/01 07:23:31;;;;;;;;;;;;;;;16.82;44.72;101454.34;5055631;28;1076;-55
2022/12/01 07:26:00;;;;;;;;;;;;;;;17.02;44.36;101447.44;5044913;28;1156;-54
2022/12/01 07:28:25;;;;;;;;;;;;;;;16.29;45.80;101465.00;5053728;28;895;-55
2022/12/01 07:30:51;;;;;;;;;;;;;;;15.98;46.79;101461.84;5053733;28;998;-54
2022/12/01 07:33:16;;;;;;;;;;;;;;;17.26;43.94;101458.91;5054549;28;1039;-54
2022/12/01 07:35:42;;;;;;;;;;;;;;;16.82;44.57;101461.78;5055646;28;1120;-55
2022/12/01 07:38:07;;;;;;;;;;;;;;;16.23;45.93;101455.88;5055425;28;1080;-54
2022/12/01 07:40:33;;;;;;;;;;;;;;;15.98;46.68;101450.88;5054567;28;1918;-55
2022/12/01 07:42:58;;;;;;;;;;;;;;;17.52;43.16;101437.97;5052265;28;1324;-54
2022/12/01 07:45:23;;;;;;;;;;;;;;;16.53;45.46;101440.03;5053723;28;1846;-51
2022/12/01 07:47:51;;;;;;;;;;;;;;;16.13;46.09;101452.16;5054690;28;1107;-54
2022/12/01 07:50:16;;;;;;;;;;;;;;;17.52;43.13;101440.72;5054092;28;909;-55
2022/12/01 07:52:42;;;;;;;;;;;;;;;16.57;45.09;101443.91;5056078;28;1187;-55
2022/12/01 07:55:07;;;;;;;;;;;;;;;16.14;46.41;101442.84;5055860;28;1163;-54
2022/12/01 07:57:33;;;;;;;;;;;;;;;17.22;44.06;101419.28;5051518;28;1120;-55
2022/12/01 07:59:58;;;;;;;;;;;;;;;16.85;44.64;101422.78;5055794;28;1987;-55
2022/12/01 08:02:24;;;;;;;;;;;;;;;16.31;46.07;101420.81;5055611;28;1135;-52
2022/12/01 08:04:49;;;;;;;;;;;;;;;16.01;46.73;101428.41;5055514;28;1143;-53
2022/12/01 08:07:14;;;;;;;;;;;;;;;17.54;43.40;101426.69;5055960;28;1171;-53
2022/12/01 08:09:40;;;;;;;;;;;;;;;16.76;44.78;101427.94;5059157;28;1170;-52
2022/12/01 08:12:05;;;;;;;;;;;;;;;16.22;46.08;101442.41;5059106;28;1166;-52
2022/12/01 08:14:31;;;;;;;;;;;;;;;16.42;46.05;101439.91;5059466;28;2006;-53
2022/12/01 08:16:56;;;;;;;;;;;;;;;17.39;43.30;101447.50;5059437;28;1073;-52
2022/12/01 08:19:22;;;;;;;;;;;;;;;16.47;45.35;101430.09;5059554;28;1980;-51
2022/12/01 08:21:47;;;;;;;;;;;;;;;16.11;46.28;101432.38;5058169;28;1358;-52
2022/12/01 08:24:13;;;;;;;;;;;;;;;17.49;43.29;101432.16;5058109;28;1218;-53
2022/12/01 08:26:38;;;;;;;;;;;;;;;16.87;44.49;101439.81;5058607;28;1132;-51
2022/12/01 08:29:03;;;;;;;;;;;;;;;16.31;46.07;101432.63;5058995;28;1095;-52
2022/12/01 08:31:30;;;;;;;;;;;;;;;16.05;46.67;101437.78;5057103;28;1077;-54
2022/12/01 08:33:55;;;;;;;;;;;;;;;15.90;47.18;101437.56;5058434;28;1204;-53
2022/12/01 08:36:21;;;;;;;;;;;;;;;17.49;43.14;101426.66;5059455;28;1088;-53
2022/12/01 08:38:47;;;;;;;;;;;;;;;16.76;44.88;101423.25;5045880;28;1983;-52
2022/12/01 08:41:12;;;;;;;;;;;;;;;16.24;46.12;101421.00;5050574;28;1203;-53
2022/12/01 08:43:43;;;;;;;;;;;;;;;16.36;46.01;101429.94;5038479;28;1211;-53
2022/12/01 08:46:08;;;;;;;;;;;;;;;17.39;43.31;101425.50;5057902;28;2269;-52
2022/12/01 08:48:34;;;;;;;;;;;;;;;16.47;45.62;101414.44;5055685;28;1258;-52
2022/12/01 08:51:10;;;;;;;;;;;;;;;16.09;46.25;101416.19;5058051;28;1411;-53
2022/12/01 08:53:36;;;;;;;;;;;;;;;16.55;45.47;101415.88;5058300;28;1180;-54
2022/12/01 08:56:03;;;;;;;;;;;;;;;17.03;44.08;101410.63;5057346;28;1211;-53
2022/12/01 08:58:29;;;;;;;;;;;;;;;16.28;46.18;101426.81;5057872;28;1325;-51
2022/12/01 09:01:04;;;;;;;;;;;;;;;16.66;45.15;101409.44;5057811;28;1972;-52
2022/12/01 09:03:30;;;;;;;;;;;;;;;17.08;43.80;101422.50;5052500;28;1321;-52
2022/12/01 09:06:00;;;;;;;;;;;;;;;16.38;45.83;101427.78;5057872;28;1124;-52
2022/12/01 09:08:31;;;;;;;;;;;;;;;16.05;46.68;101417.78;5057472;28;1187;-47
2022/12/01 09:10:57;;;;;;;;;;;;;;;16.79;44.97;101415.56;5054448;28;1125;-51
2022/12/01 09:13:23;;;;;;;;;;;;;;;16.97;44.28;101423.50;5050630;28;1188;-50
2022/12/01 09:16:01;;;;;;;;;;;;;;;16.24;45.96;101407.28;5058016;28;1832;-53
2022/12/01 09:18:27;;;;;;;;;;;;;;;15.99;46.45;101408.66;5057952;28;1061;-51
2022/12/01 09:20:52;;;;;;;;;;;;;;;17.53;43.00;101416.78;5058445;28;1979;-54
2022/12/01 09:23:18;;;;;;;;;;;;;;;16.70;44.73;101415.22;5057801;28;900;-52
2022/12/01 09:25:43;;;;;;;;;;;;;;;16.20;46.04;101414.38;5057624;28;1237;-53
2022/12/01 09:28:09;;;;;;;;;;;;;;;16.21;46.27;101414.09;5056750;28;1132;-46
2022/12/01 09:30:34;;;;;;;;;;;;;;;17.68;42.60;101429.81;5051818;28;1246;-55
2022/12/01 09:33:00;;;;;;;;;;;;;;;16.62;45.18;101418.44;5057499;28;1314;-53
2022/12/01 09:35:25;;;;;;;;;;;;;;;16.20;45.90;101408.88;5039181;28;1373;-52
2022/12/01 09:37:51;;;;;;;;;;;;;;;16.50;45.58;101413.09;5039360;28;1069;-53
2022/12/01 09:40:16;;;;;;;;;;;;;;;17.40;43.53;101385.06;5056545;28;1914;-50
2022/12/01 09:42:42;;;;;;;;;;;;;;;16.45;45.75;101397.38;5056319;28;1139;-51
2022/12/01 09:45:09;;;;;;;;;;;;;;;16.13;46.21;101381.66;5038509;28;2359;-50
2022/12/01 09:47:35;;;;;;;;;;;;;;;17.17;44.24;101378.06;5049299;28;885;-50
2022/12/01 09:50:02;;;;;;;;;;;;;;;16.98;44.10;101389.41;5042866;28;1057;-51
2022/12/01 09:52:28;;;;;;;;;;;;;;;16.31;45.74;101377.72;5039161;28;1104;-51
2022/12/01 09:54:54;;;;;;;;;;;;;;;16.29;45.94;101371.69;5055525;28;1112;-51
2022/12/01 09:57:28;;;;;;;;;;;;;;;17.36;43.56;101375.69;5045788;28;1156;-49
2022/12/01 09:59:53;;;;;;;;;;;;;;;16.36;45.84;101368.75;5038476;28;2012;-49
2022/12/01 10:02:25;;;;;;;;;;;;;;;16.06;46.32;101376.34;5032847;28;1215;-51
2022/12/01 10:04:51;;;;;;;;;;;;;;;16.63;45.12;101368.75;5051098;28;1140;-50
2022/12/01 10:07:21;;;;;;;;;;;;;;;17.29;43.61;101364.94;5056695;28;1420;-51
2022/12/01 10:10:05;;;;;;;;;;;;;;;16.39;45.82;101354.50;5031461;28;1140;-51
2022/12/01 10:12:34;;;;;;;;;;;;;;;16.08;46.39;101357.72;5055709;28;1140;-52
2022/12/01 10:15:15;;;;;;;;;;;;;;;17.54;43.25;101349.69;5047494;28;1840;-50
2022/12/01 10:17:43;;;;;;;;;;;;;;;16.47;45.74;101353.22;5051392;28;1144;-53
2022/12/01 10:20:09;;;;;;;;;;;;;;;16.13;46.34;101353.38;5046778;28;1897;-51
2022/12/01 10:22:49;;;;;;;;;;;;;;;17.60;42.88;101343.16;5056354;28;1249;-52
2022/12/01 10:25:15;;;;;;;;;;;;;;;16.61;45.28;101337.97;5056682;28;1202;-55
2022/12/01 10:27:40;;;;;;;;;;;;;;;16.18;46.41;101339.72;5056817;28;1164;-55
2022/12/01 10:30:09;;;;;;;;;;;;;;;15.91;46.93;101335.03;5055149;28;1465;-47
2022/12/01 10:32:38;;;;;;;;;;;;;;;17.18;44.01;101342.06;5052175;28;1204;-55
2022/12/01 10:35:03;;;;;;;;;;;;;;;17.08;44.02;101336.47;5034510;28;1246;-56
2022/12/01 10:37:29;;;;;;;;;;;;;;;16.35;45.98;101323.97;5037008;28;1055;-54
2022/12/01 10:39:54;;;;;;;;;;;;;;;16.11;46.29;101330.88;5036959;28;1901;-52
2022/12/01 10:42:23;;;;;;;;;;;;;;;17.52;43.20;101316.16;5035764;28;1109;-54
2022/12/01 10:44:48;;;;;;;;;;;;;;;16.60;45.28;101323.41;5036525;28;1937;-56
2022/12/01 10:47:18;;;;;;;;;;;;;;;16.18;46.17;101317.78;5034720;28;1267;-54
2022/12/01 10:49:44;;;;;;;;;;;;;;;17.52;43.31;101313.41;5036711;28;1234;-55
2022/12/01 10:52:26;;;;;;;;;;;;;;;16.57;45.36;101320.38;5036792;28;1073;-56
2022/12/01 10:54:51;;;;;;;;;;;;;;;16.18;46.27;101301.31;5035738;28;1303;-56
2022/12/01 10:57:17;;;;;;;;;;;;;;;16.10;46.70;101283.38;5035967;28;1128;-56
2022/12/01 10:59:42;;;;;;;;;;;;;;;17.38;43.34;101291.88;5036208;28;1929;-52
2022/12/01 11:02:16;;;;;;;;;;;;;;;16.46;45.41;101286.50;5035312;28;1068;-55
2022/12/01 11:04:44;;;;;;;;;;;;;;;16.05;46.35;101292.41;5034067;28;918;-55
2022/12/01 11:07:16;;;;;;;;;;;;;;;16.73;45.21;101305.69;5035222;28;1088;-58
2022/12/01 11:09:42;;;;;;;;;;;;;;;17.15;43.82;101308.78;5025899;28;969;-56
2022/12/01 11:12:11;;;;;;;;;;;;;;;16.29;46.16;101313.22;5025606;28;1208;-57
2022/12/01 11:14:42;;;;;;;;;;;;;;;16.81;45.04;101311.78;5032108;28;1830;-57
2022/12/01 11:17:28;;;;;;;;;;;;;;;17.24;43.50;101326.44;5028991;28;1393;-57
2022/12/01 11:19:53;;;;;;;;;;;;;;;16.36;45.85;101322.91;5030284;28;1988;-56
2022/12/01 11:22:22;;;;;;;;;;;;;;;16.06;46.58;101321.50;5032663;28;1238;-58
2022/12/01 11:24:48;;;;;;;;;;;;;;;16.82;45.02;101316.19;5032308;28;1305;-60
2022/12/01 11:27:13;;;;;;;;;;;;;;;17.24;43.85;101304.44;5034423;28;1375;-59
2022/12/01 11:29:39;;;;;;;;;;;;;;;16.40;45.84;101312.25;5034526;28;1309;-56
2022/12/01 11:32:24;;;;;;;;;;;;;;;16.08;46.50;101316.56;5034324;28;1340;-56
2022/12/01 11:34:51;;;;;;;;;;;;;;;16.81;44.86;101323.59;5044896;28;1278;-55
2022/12/01 11:37:18;;;;;;;;;;;;;;;17.33;43.40;101327.56;5046435;28;1309;-46
2022/12/01 11:39:44;;;;;;;;;;;;;;;16.45;45.42;101334.25;5047573;28;1972;-53
2022/12/01 11:42:12;;;;;;;;;;;;;;;16.10;46.38;101321.78;5034473;28;1326;-55
2022/12/01 11:44:37;;;;;;;;;;;;;;;16.27;46.19;101320.88;5050847;28;1951;-49
2022/12/01 11:47:16;;;;;;;;;;;;;;;17.64;42.73;101326.94;5055211;28;1328;-52
2022/12/01 11:49:44;;;;;;;;;;;;;;;16.52;45.57;101325.81;5036368;28;1114;-52
2022/12/01 11:52:15;;;;;;;;;;;;;;;16.12;46.43;101318.78;5049180;28;1274;-47
2022/12/01 11:54:46;;;;;;;;;;;;;;;16.59;45.55;101330.00;5055598;28;1250;-56
2022/12/01 11:57:12;;;;;;;;;;;;;;;17.57;43.06;101313.41;5042235;28;1264;-55
2022/12/01 11:59:38;;;;;;;;;;;;;;;16.54;45.26;101315.41;5056118;28;1970;-55
2022/12/01 12:02:36;;;;;;;;;;;;;;;16.17;46.06;101316.09;5058581;28;1061;-54
2022/12/01 12:05:36;;;;;;;;;;;;;;;16.98;44.54;101326.22;5019634;28;1271;-54
2022/12/01 12:08:08;;;;;;;;;;;;;;;16.72;44.77;101328.75;5005692;28;1429;-51
2022/12/01 12:10:43;;;;;;;;;;;;;;;16.16;46.28;101326.28;5052013;28;1321;-56
2022/12/01 12:13:15;;;;;;;;;;;;;;;15.97;46.60;101331.25;5061311;28;1301;-51
2022/12/01 12:15:59;;;;;;;;;;;;;;;17.61;42.92;101333.78;5046478;28;1912;-50
2022/12/01 12:18:24;;;;;;;;;;;;;;;16.60;45.26;101330.81;5055331;28;1081;-52
2022/12/01 12:20:59;;;;;;;;;;;;;;;16.16;46.32;101347.38;5057298;28;1970;-53
2022/12/01 12:23:24;;;;;;;;;;;;;;;16.86;44.83;101350.28;5055237;28;1227;-52
2022/12/01 12:25:53;;;;;;;;;;;;;;;17.25;43.49;101336.31;5057106;28;1292;-53
2022/12/01 12:28:38;;;;;;;;;;;;;;;16.46;45.70;101351.56;5062028;28;1281;-56
2022/12/01 12:31:15;;;;;;;;;;;;;;;16.48;45.90;101349.38;5057125;28;1768;-55
2022/12/01 12:33:46;;;;;;;;;;;;;;;17.38;43.11;101335.03;5040073;28;1294;-54
2022/12/01 12:36:26;;;;;;;;;;;;;;;16.52;45.45;101347.75;5034633;28;1125;-54
2022/12/01 12:39:04;;;;;;;;;;;;;;;16.12;46.59;101343.47;5060421;28;1979;-51
2022/12/01 12:41:30;;;;;;;;;;;;;;;16.57;45.55;101348.63;5060884;28;1277;-56
2022/12/01 12:43:58;;;;;;;;;;;;;;;17.15;43.79;101330.75;5061676;28;1761;-58
2022/12/01 12:46:42;;;;;;;;;;;;;;;16.33;45.88;101337.16;5061417;28;1353;-49
2022/12/01 12:49:16;;;;;;;;;;;;;;;15.98;46.75;101330.16;5061233;28;1108;-54
2022/12/01 12:51:43;;;;;;;;;;;;;;;17.23;43.79;101311.03;5044383;28;1286;-50
2022/12/01 12:54:25;;;;;;;;;;;;;;;16.74;44.84;101304.56;5040766;28;1313;-54